Flight Track Log - Related Links

Times and Time Zones

All times are in EDT time to prevent confusion due to time zone crossing. See the SWA543 flight status page for this flight to view local times or setup timezone preferences in your user account.

Time Position Orientation Groundspeed Altitude Reporting Facility
EDT Latitude Longitude Course Direction KTS MPH feet Rate Location/Type
Thu 07:21:08 AM 39.1500 -76.6500 142° Southeast 172 198 1,200  Level Potomac TRACON
Thu 07:22:08 AM 39.1000 -76.6000 142° Southeast 219 252 3,500 2,500 Climbing Potomac TRACON
Thu 07:23:08 AM 39.0500 -76.5333 134° Southeast 244 281 6,200 2,557 Climbing Potomac TRACON
Thu 07:25:11 AM 38.9250 -76.4189 145° Southeast 298 343 11,300 2,287 Climbing Washington Center
Thu 07:26:09 AM 38.8517 -76.4739 210° Southwest 260 299 13,100 1,373 Climbing Washington Center
Thu 07:27:09 AM 38.7783 -76.5369 214° Southwest 279 321 14,000 496 Climbing Washington Center
Thu 07:28:10 AM 38.7133 -76.5947 215° Southwest 309 356 14,100 1,623 Climbing Washington Center
Thu 07:29:11 AM 38.6314 -76.6653 214° Southwest 328 377 17,300 2,521 Climbing Washington Center
Thu 07:30:09 AM 38.5517 -76.7253 210° Southwest 341 392 19,100 1,916 Climbing Washington Center
Thu 07:31:10 AM 38.4431 -76.7183 177° South 353 406 21,100 1,820 Climbing Washington Center
Thu 07:32:11 AM 38.3286 -76.7006 173° South 379 436 22,800 1,664 Climbing Washington Center
Thu 07:33:09 AM 38.2058 -76.6778 172° South 394 453 24,400 1,525 Climbing Washington Center
Thu 07:34:09 AM 38.0892 -76.6628 174° South 419 482 25,800 1,339 Climbing Washington Center
Thu 07:35:10 AM 37.9664 -76.6481 175° South 432 497 27,100 1,438 Climbing Washington Center
Thu 07:36:10 AM 37.8472 -76.6594 184° South 438 504 28,700 1,563 Climbing Washington Center
Thu 07:37:09 AM 37.7283 -76.6736 185° South 438 504 30,200 1,261 Climbing Washington Center
Thu 07:38:09 AM 37.6072 -76.6903 186° South 443 510 31,200 1,091 Climbing Washington Center
Thu 07:39:10 AM 37.4839 -76.7042 185° South 443 510 32,400 1,339 Climbing Washington Center
Thu 07:40:10 AM 37.3650 -76.7206 186° South 443 510 33,900 793 Climbing Washington Center
Thu 07:41:11 AM 37.2417 -76.7397 187° South 448 516 34,000 50 Climbing Washington Center
Thu 07:42:11 AM 37.1206 -76.7614 188° South 448 516 34,000  Level Washington Center
Thu 07:43:09 AM 36.9994 -76.7778 186° South 448 516 34,000  Level Washington Center
Thu 07:44:09 AM 36.8739 -76.7967 187° South 448 516 34,000  Level Washington Center
Thu 07:45:09 AM 36.7547 -76.8156 187° South 443 510 34,000  Level Washington Center
Thu 07:46:10 AM 36.6317 -76.8214 182° South 443 510 34,000  Level Washington Center
Thu 07:47:11 AM 36.5300 -76.7706 158° South 442 509 34,000  Level Washington Center
Thu 07:48:11 AM 36.4158 -76.7122 158° South 442 509 34,000  Level Washington Center
Thu 07:49:09 AM 36.3058 -76.6539 157° South 442 509 34,000  Level Washington Center
Thu 07:50:10 AM 36.1894 -76.5958 158° South 442 509 34,000  Level Washington Center
Thu 07:51:11 AM 36.0750 -76.5378 158° South 448 516 34,000  Level Washington Center
Thu 07:53:09 AM 35.8783 -76.6250 200° South 372 428 34,000  Level Washington Center
Thu 07:54:11 AM 35.8003 -76.7264 227° Southwest 384 442 34,000  Level Washington Center
Thu 07:55:11 AM 35.7156 -76.8278 224° Southwest 406 467 34,000  Level Washington Center
Thu 07:56:09 AM 35.6394 -76.9389 230° Southwest 418 481 34,000  Level Washington Center
Thu 07:57:10 AM 35.5525 -77.0550 227° Southwest 423 487 34,000  Level Washington Center
Thu 07:58:11 AM 35.4697 -77.1656 227° Southwest 429 494 34,000  Level Washington Center
Thu 07:59:09 AM 35.3847 -77.2708 225° Southwest 436 502 34,000  Level Washington Center
Thu 08:00:09 AM 35.3019 -77.3811 227° Southwest 442 509 34,000 -50 Level Washington Center
Thu 08:01:10 AM 35.2231 -77.4889 228° Southwest 437 503 33,900  Descending Washington Center
Thu 08:02:08 AM 35.1378 -77.5961 226° Southwest 437 503 34,000 50 Climbing Washington Center
Thu 08:03:09 AM 35.0567 -77.7006 227° Southwest 437 503 34,000  Level Washington Center
Thu 08:04:10 AM 34.9778 -77.8025 227° Southwest 431 496 34,000  Level Washington Center
Thu 08:05:11 AM 34.8964 -77.9117 228° Southwest 431 496 34,000  Level Washington Center
Thu 08:06:09 AM 34.8128 -78.0131 225° Southwest 431 496 34,000  Level Washington Center
Thu 08:07:47 AM 34.6867 -78.1711 226° Southwest 431 496 34,000  Level Jacksonville Center
Thu 08:08:47 AM 34.6053 -78.2792 228° Southwest 431 496 34,000  Level Jacksonville Center
Thu 08:09:47 AM 34.5214 -78.3844 226° Southwest 431 496 34,000  Level Jacksonville Center
Thu 08:10:47 AM 34.4394 -78.4869 226° Southwest 431 496 34,000  Level Jacksonville Center
Thu 08:11:47 AM 34.3575 -78.5892 226° Southwest 431 496 34,000  Level Jacksonville Center
Thu 08:12:47 AM 34.2972 -78.7128 239° Southwest 431 496 34,000 -150 Level Jacksonville Center
Thu 08:13:47 AM 34.2872 -78.8564 265° West 419 482 33,700 -650 Descending Jacksonville Center
Thu 08:14:47 AM 34.2769 -79.0003 265° West 424 488 32,700 -850 Descending Jacksonville Center
Thu 08:15:47 AM 34.2669 -79.1489 265° West 436 502 32,000 -350 Descending Jacksonville Center
Thu 08:16:47 AM 34.2567 -79.2925 265° West 436 502 32,000  Level Jacksonville Center
Thu 08:17:47 AM 34.2442 -79.4486 265° West 436 502 32,000  Level Jacksonville Center
Thu 08:18:47 AM 34.2392 -79.5719 267° West 431 496 32,000  Level Jacksonville Center
Thu 08:19:47 AM 34.2219 -79.7108 262° West 424 488 32,000  Level Jacksonville Center
Thu 08:20:47 AM 34.1836 -79.8528 252° West 424 488 32,000  Level Jacksonville Center
Thu 08:21:47 AM 34.1414 -80.0072 252° West 446 513 32,000 -50 Level Jacksonville Center
Thu 08:22:47 AM 34.1050 -80.1489 253° West 445 512 31,900  Descending Jacksonville Center
Thu 08:23:47 AM 34.0683 -80.2878 252° West 445 512 32,000 50 Climbing Jacksonville Center
Thu 08:24:47 AM 34.0314 -80.4219 252° West 440 506 32,000  Level Jacksonville Center
Thu 08:25:47 AM 33.9944 -80.5606 252° West 435 501 32,000  Level Jacksonville Center
Thu 08:26:47 AM 33.9572 -80.6967 252° West 435 501 32,000  Level Jacksonville Center
Thu 08:27:47 AM 33.9197 -80.8328 252° West 428 493 32,000  Level Jacksonville Center
Thu 08:28:47 AM 33.8822 -80.9689 252° West 428 493 32,000  Level Jacksonville Center
Thu 08:29:47 AM 33.8467 -81.0997 252° West 428 493 32,000  Level Jacksonville Center
Thu 08:30:47 AM 33.8067 -81.2331 250° West 423 487 32,000  Level Jacksonville Center
Thu 08:31:47 AM 33.7667 -81.3636 250° West 428 493 32,000  Level Jacksonville Center
Thu 08:32:47 AM 33.7264 -81.4992 250° West 428 493 32,000  Level Jacksonville Center
Thu 08:33:47 AM 33.6861 -81.6319 250° West 428 493 32,000  Level Jacksonville Center
Thu 08:34:47 AM 33.6456 -81.7625 250° West 428 493 32,000  Level Jacksonville Center
Thu 08:35:56 AM 33.6028 -81.9189 252° West 418 481 32,000  Level Atlanta Center
Thu 08:36:56 AM 33.5758 -82.0542 257° West 418 481 32,000 -350 Level Atlanta Center
Thu 08:37:56 AM 33.5467 -82.1944 256° West 423 487 31,300 -750 Descending Atlanta Center
Thu 08:38:56 AM 33.5175 -82.3394 256° West 441 507 30,500 -1,000 Descending Atlanta Center
Thu 08:39:56 AM 33.4922 -82.4769 258° West 434 499 29,300 -1,100 Descending Atlanta Center
Thu 08:40:56 AM 33.4603 -82.6169 255° West 434 499 28,300 -1,100 Descending Atlanta Center
Thu 08:41:56 AM 33.4347 -82.7594 258° West 439 505 27,100 -1,000 Descending Atlanta Center
Thu 08:42:56 AM 33.4069 -82.8892 256° West 439 505 26,300 -850 Descending Atlanta Center
Thu 08:43:56 AM 33.3789 -83.0314 257° West 439 505 25,400 -1,300 Descending Atlanta Center
Thu 08:44:56 AM 33.3486 -83.1758 256° West 439 505 23,700 3,300 Descending Atlanta Center
Thu 08:45:56 AM 33.3161 -83.3181 255° West 446 513 32,000 -3,050 Climbing Atlanta Center
Thu 08:46:56 AM 33.2897 -83.4547 257° West 438 504 17,600 -8,600 Descending Atlanta Center
Thu 08:47:56 AM 33.2611 -83.5917 256° West 416 479 14,800 -2,550 Descending Atlanta Center
Thu 08:48:56 AM 33.2364 -83.7158 257° West 392 451 12,500 -1,670 Descending Atlanta Center
Thu 08:49:33 AM 33.2167 -83.7833 251° West 344 396 12,100 -804 Descending Atlanta TRACON
Thu 08:50:33 AM 33.2500 -83.8667 296° West 295 339 11,200 -1,012 Descending Atlanta TRACON
Thu 08:50:56 AM 33.2722 -83.8947 313° West 283 326 10,700 -1,229 Descending Atlanta Center
Thu 08:51:56 AM 33.3392 -83.9419 329° Northwest 272 313 9,500 -1,400 Descending Atlanta Center
Thu 08:52:56 AM 33.4186 -83.9617 348° North 278 320 7,900 -950 Descending Atlanta Center
Thu 08:53:56 AM 33.4978 -83.9764 351° North 286 329 7,600 -550 Descending Atlanta Center
Thu 08:54:56 AM 33.5708 -83.9989 346° North 281 323 6,800 -850 Descending Atlanta Center
Thu 08:55:56 AM 33.6086 -84.0711 302° West 252 290 5,900 -757 Descending Atlanta Center
Thu 08:56:39 AM 33.6333 -84.1333 296° West 233 268 5,500 -742 Descending Atlanta TRACON
Thu 08:57:33 AM 33.6333 -84.1833 270° West 207 238 4,700 -944 Descending Atlanta TRACON
Thu 08:58:27 AM 33.6333 -84.2500 270° West 199 229 3,800 -1,053 Descending Atlanta TRACON
Thu 08:59:27 AM 33.6333 -84.3167 270° West 198 228 2,700 -898 Descending Atlanta TRACON
Thu 09:00:34 AM 33.6333 -84.3667 270° West 138 159 1,900 -716 Descending Atlanta TRACON
Thu 09:02:00 AM 33.6367 -84.4279 256° West  Level Estimated
Thu 09:09:00 AM 33.6367 -84.4279 64° Northeast  Level Estimated
Thu 09:10:00 AM 33.6367 -84.4279 64° Northeast  Level Estimated

Login

Don't have an account? Register now (free) for customized features, flight alerts, and more!